V.rusanov — EMAE — position and weather

sailwx.info

Track history (hours):
 
Tides and Currents Weather Stations Pressure Air Temp Water Temp Dewpoint Dewpoint Depression Visibility Wind Speed Wind Dir Waves Ship Positions

V.rusanov

Last reported at 2017-Nov-17 21:59 UTC. Time now 2017-Dec-11 23:06 UTC.
Position N 47°33' E 034°39'.
Warning: this ship's position is 24 days out of date.

Length 24 m; draft 2.1 m.

Type: Tug. MMSI: 272139500.

Date/timePositionNaut miles runAvg speedWind from/ knotsBaromVisibWave heightAir tempDewpointWater temp
2017-Nov-17 21:59N 47°33' E 034°39'15 2.8
2017-Nov-17 16:52N 47°34' E 035°01'1 3.2
2017-Nov-17 16:30N 47°35' E 035°02'1 1.2
2017-Nov-17 16:00N 47°35' E 035°03'0 0.2
2017-Nov-17 15:30N 47°35' E 035°03'0 0.8
2017-Nov-17 15:01N 47°35' E 035°03'0 0.0
2017-Nov-17 14:30N 47°35' E 035°03'0 0.0
2017-Nov-17 14:00N 47°35' E 035°03'0 0.0
2017-Nov-17 13:29N 47°35' E 035°03'0 0.0
2017-Nov-17 12:59N 47°35' E 035°03'0 0.0
2017-Nov-17 12:30N 47°35' E 035°03'0 0.0
2017-Nov-17 11:59N 47°35' E 035°03'0 0.9
2017-Nov-17 11:30N 47°35' E 035°03'0 0.9
2017-Nov-17 11:01N 47°35' E 035°03'0 0.0
2017-Nov-17 10:30N 47°35' E 035°03'0 0.0
2017-Nov-17 10:00N 47°35' E 035°03'0 0.0
2017-Nov-17 09:30N 47°35' E 035°03'0 0.0
2017-Nov-17 09:00N 47°35' E 035°03'0 0.0
2017-Nov-17 08:31N 47°35' E 035°03'0 0.3
2017-Nov-17 08:00N 47°35' E 035°03'0 0.8
2017-Nov-17 07:30N 47°35' E 035°02'0 0.1
2017-Nov-17 07:00N 47°35' E 035°02'1 2.2
2017-Nov-17 06:30N 47°34' E 035°01'8 3.4
2017-Nov-17 04:04N 47°32' E 034°49'0 3.3
2017-Nov-17 04:00N 47°32' E 034°49'2 3.3
2017-Nov-17 03:30N 47°31' E 034°47'2 3.2
2017-Nov-17 02:54N 47°32' E 034°44'3 3.3
2017-Nov-17 02:08N 47°32' E 034°40'0 3.2
2017-Nov-17 01:59N 47°33' E 034°40'2 3.1
2017-Nov-17 01:30N 47°33' E 034°38'  
Track history (hours):
 
Tides and Currents Weather Stations Pressure Air Temp Water Temp Dewpoint Dewpoint Depression Visibility Wind Speed Wind Dir Waves Ship Positions

V.rusanov

Last reported at 2017-Nov-17 21:59 UTC. Time now 2017-Dec-11 23:06 UTC.
Position N 47°33' E 034°39'.
Warning: this ship's position is 24 days out of date.

Length 24 m; draft 2.1 m.

Type: Tug. MMSI: 272139500.

Date/timePositionNaut miles runAvg speedWind from/ knotsBaromVisibWave heightAir tempDewpointWater temp
2017-Nov-17 21:59N 47°33' E 034°39'15 2.8
2017-Nov-17 16:52N 47°34' E 035°01'1 3.2
2017-Nov-17 16:30N 47°35' E 035°02'1 1.2
2017-Nov-17 16:00N 47°35' E 035°03'0 0.2
2017-Nov-17 15:30N 47°35' E 035°03'0 0.8
2017-Nov-17 15:01N 47°35' E 035°03'0 0.0
2017-Nov-17 14:30N 47°35' E 035°03'0 0.0
2017-Nov-17 14:00N 47°35' E 035°03'0 0.0
2017-Nov-17 13:29N 47°35' E 035°03'0 0.0
2017-Nov-17 12:59N 47°35' E 035°03'0 0.0
2017-Nov-17 12:30N 47°35' E 035°03'0 0.0
2017-Nov-17 11:59N 47°35' E 035°03'0 0.9
2017-Nov-17 11:30N 47°35' E 035°03'0 0.9
2017-Nov-17 11:01N 47°35' E 035°03'0 0.0
2017-Nov-17 10:30N 47°35' E 035°03'0 0.0
2017-Nov-17 10:00N 47°35' E 035°03'0 0.0
2017-Nov-17 09:30N 47°35' E 035°03'0 0.0
2017-Nov-17 09:00N 47°35' E 035°03'0 0.0
2017-Nov-17 08:31N 47°35' E 035°03'0 0.3
2017-Nov-17 08:00N 47°35' E 035°03'0 0.8
2017-Nov-17 07:30N 47°35' E 035°02'0 0.1
2017-Nov-17 07:00N 47°35' E 035°02'1 2.2
2017-Nov-17 06:30N 47°34' E 035°01'8 3.4
2017-Nov-17 04:04N 47°32' E 034°49'0 3.3
2017-Nov-17 04:00N 47°32' E 034°49'2 3.3
2017-Nov-17 03:30N 47°31' E 034°47'2 3.2
2017-Nov-17 02:54N 47°32' E 034°44'3 3.3
2017-Nov-17 02:08N 47°32' E 034°40'0 3.2
2017-Nov-17 01:59N 47°33' E 034°40'2 3.1
2017-Nov-17 01:30N 47°33' E 034°38'  

Dump ship's entire track history